sensor_id;sensor_type;location;lat;lon;timestamp;pressure;altitude;pressure_sealevel;temperature;humidity
60371;BME280;48550;40.588;49.684;2022-11-15T00:00:49;102220.00;;;8.97;100.00
60371;BME280;48550;40.588;49.684;2022-11-15T00:03:16;102225.78;;;8.86;100.00
60371;BME280;48550;40.588;49.684;2022-11-15T00:05:42;102215.03;;;8.94;100.00
60371;BME280;48550;40.588;49.684;2022-11-15T00:08:08;102218.72;;;8.93;100.00
60371;BME280;48550;40.588;49.684;2022-11-15T00:10:35;102221.09;;;8.88;100.00
60371;BME280;48550;40.588;49.684;2022-11-15T00:13:05;102229.56;;;8.77;100.00
60371;BME280;48550;40.588;49.684;2022-11-15T00:15:30;102231.16;;;8.71;100.00
60371;BME280;48550;40.588;49.684;2022-11-15T00:17:56;102215.72;;;8.58;100.00
60371;BME280;48550;40.588;49.684;2022-11-15T00:20:22;102227.00;;;8.69;100.00
60371;BME280;48550;40.588;49.684;2022-11-15T00:22:47;102215.44;;;8.68;100.00
60371;BME280;48550;40.588;49.684;2022-11-15T00:25:13;102223.41;;;8.76;100.00
60371;BME280;48550;40.588;49.684;2022-11-15T00:27:39;102222.47;;;8.69;100.00
60371;BME280;48550;40.588;49.684;2022-11-15T00:30:05;102217.28;;;8.53;100.00
60371;BME280;48550;40.588;49.684;2022-11-15T00:32:31;102221.81;;;8.67;100.00
60371;BME280;48550;40.588;49.684;2022-11-15T00:34:57;102225.41;;;8.59;100.00
60371;BME280;48550;40.588;49.684;2022-11-15T00:37:23;102240.19;;;8.70;100.00
60371;BME280;48550;40.588;49.684;2022-11-15T00:39:49;102241.50;;;8.74;100.00
60371;BME280;48550;40.588;49.684;2022-11-15T00:42:15;102225.16;;;8.69;100.00
60371;BME280;48550;40.588;49.684;2022-11-15T00:44:40;102228.66;;;8.84;100.00
60371;BME280;48550;40.588;49.684;2022-11-15T00:47:06;102225.88;;;8.78;100.00
60371;BME280;48550;40.588;49.684;2022-11-15T00:49:32;102238.25;;;8.79;100.00
60371;BME280;48550;40.588;49.684;2022-11-15T00:51:58;102236.97;;;8.75;100.00
60371;BME280;48550;40.588;49.684;2022-11-15T00:54:23;102233.38;;;8.82;100.00
60371;BME280;48550;40.588;49.684;2022-11-15T00:56:49;102224.41;;;8.90;100.00
60371;BME280;48550;40.588;49.684;2022-11-15T00:59:15;102236.78;;;8.91;100.00
60371;BME280;48550;40.588;49.684;2022-11-15T01:01:41;102236.03;;;8.68;100.00
60371;BME280;48550;40.588;49.684;2022-11-15T01:04:06;102236.47;;;8.56;100.00
60371;BME280;48550;40.588;49.684;2022-11-15T01:06:32;102235.41;;;8.80;100.00
60371;BME280;48550;40.588;49.684;2022-11-15T01:08:58;102238.25;;;8.79;100.00
60371;BME280;48550;40.588;49.684;2022-11-15T01:11:23;102243.50;;;8.72;100.00
60371;BME280;48550;40.588;49.684;2022-11-15T01:13:49;102244.09;;;8.97;100.00
60371;BME280;48550;40.588;49.684;2022-11-15T01:16:17;102241.06;;;9.00;100.00
60371;BME280;48550;40.588;49.684;2022-11-15T01:18:44;102253.34;;;8.95;100.00
60371;BME280;48550;40.588;49.684;2022-11-15T01:21:16;102251.56;;;8.87;100.00
60371;BME280;48550;40.588;49.684;2022-11-15T01:23:42;102244.16;;;8.59;100.00
60371;BME280;48550;40.588;49.684;2022-11-15T01:26:11;102244.59;;;8.48;100.00
60371;BME280;48550;40.588;49.684;2022-11-15T01:28:39;102248.56;;;8.52;100.00
60371;BME280;48550;40.588;49.684;2022-11-15T01:31:15;102244.88;;;8.53;100.00
60371;BME280;48550;40.588;49.684;2022-11-15T01:33:41;102239.34;;;8.70;100.00
60371;BME280;48550;40.588;49.684;2022-11-15T01:36:19;102247.41;;;8.84;100.00
60371;BME280;48550;40.588;49.684;2022-11-15T01:38:52;102251.94;;;8.84;100.00
60371;BME280;48550;40.588;49.684;2022-11-15T01:41:21;102256.34;;;8.91;100.00
60371;BME280;48550;40.588;49.684;2022-11-15T01:43:56;102256.38;;;9.06;100.00
60371;BME280;48550;40.588;49.684;2022-11-15T01:46:33;102270.88;;;9.12;100.00
60371;BME280;48550;40.588;49.684;2022-11-15T01:49:11;102262.66;;;9.13;100.00
60371;BME280;48550;40.588;49.684;2022-11-15T01:51:38;102267.38;;;9.11;100.00
60371;BME280;48550;40.588;49.684;2022-11-15T01:54:10;102268.03;;;9.13;100.00
60371;BME280;48550;40.588;49.684;2022-11-15T01:56:53;102261.28;;;9.17;100.00
60371;BME280;48550;40.588;49.684;2022-11-15T01:59:21;102266.91;;;9.08;100.00
60371;BME280;48550;40.588;49.684;2022-11-15T02:01:48;102263.22;;;8.94;100.00
60371;BME280;48550;40.588;49.684;2022-11-15T02:04:31;102256.84;;;8.95;100.00
60371;BME280;48550;40.588;49.684;2022-11-15T02:06:57;102255.25;;;8.86;100.00
60371;BME280;48550;40.588;49.684;2022-11-15T02:09:24;102267.53;;;8.80;100.00
60371;BME280;48550;40.588;49.684;2022-11-15T02:11:50;102255.25;;;8.86;100.00
60371;BME280;48550;40.588;49.684;2022-11-15T02:14:19;102255.59;;;8.68;100.00
60371;BME280;48550;40.588;49.684;2022-11-15T02:16:58;102255.06;;;8.73;100.00
60371;BME280;48550;40.588;49.684;2022-11-15T02:25:08;102257.16;;;8.63;100.00
60371;BME280;48550;40.588;49.684;2022-11-15T02:28:10;102260.31;;;8.66;100.00
60371;BME280;48550;40.588;49.684;2022-11-15T02:30:48;102263.72;;;8.75;100.00
60371;BME280;48550;40.588;49.684;2022-11-15T02:36:12;102257.66;;;8.81;100.00
60371;BME280;48550;40.588;49.684;2022-11-15T02:41:39;102261.88;;;8.75;100.00
60371;BME280;48550;40.588;49.684;2022-11-15T02:44:21;102262.06;;;8.74;100.00
60371;BME280;48550;40.588;49.684;2022-11-15T02:46:49;102273.59;;;8.74;100.00
60371;BME280;48550;40.588;49.684;2022-11-15T02:49:35;102271.75;;;8.60;100.00
60371;BME280;48550;40.588;49.684;2022-11-15T02:52:03;102275.34;;;8.67;100.00
60371;BME280;48550;40.588;49.684;2022-11-15T02:54:30;102280.50;;;8.54;100.00
60371;BME280;48550;40.588;49.684;2022-11-15T02:57:12;102291.03;;;8.55;100.00
60371;BME280;48550;40.588;49.684;2022-11-15T03:00:01;102294.81;;;8.61;100.00
60371;BME280;48550;40.588;49.684;2022-11-15T03:02:40;102297.53;;;8.76;100.00
60371;BME280;48550;40.588;49.684;2022-11-15T03:05:32;102296.59;;;8.69;100.00
60371;BME280;48550;40.588;49.684;2022-11-15T03:13:20;102314.50;;;8.68;100.00
60371;BME280;48550;40.588;49.684;2022-11-15T03:16:02;102308.47;;;8.66;100.00
60371;BME280;48550;40.588;49.684;2022-11-15T03:18:32;102306.94;;;8.72;100.00
60371;BME280;48550;40.588;49.684;2022-11-15T03:21:03;102305.56;;;8.76;100.00
60371;BME280;48550;40.588;49.684;2022-11-15T03:23:31;102311.81;;;8.68;100.00
60371;BME280;48550;40.588;49.684;2022-11-15T03:25:59;102320.97;;;8.74;100.00
60371;BME280;48550;40.588;49.684;2022-11-15T03:28:35;102320.03;;;8.67;100.00
60371;BME280;48550;40.588;49.684;2022-11-15T03:31:03;102329.16;;;8.72;100.00
60371;BME280;48550;40.588;49.684;2022-11-15T03:33:53;102328.34;;;8.72;100.00
60371;BME280;48550;40.588;49.684;2022-11-15T03:36:22;102320.78;;;8.75;100.00
60371;BME280;48550;40.588;49.684;2022-11-15T03:38:48;102320.03;;;8.67;100.00
60371;BME280;48550;40.588;49.684;2022-11-15T03:41:35;102327.88;;;8.68;100.00
60371;BME280;48550;40.588;49.684;2022-11-15T03:44:26;102322.78;;;8.58;100.00
60371;BME280;48550;40.588;49.684;2022-11-15T03:49:59;102321.63;;;8.30;100.00
60371;BME280;48550;40.588;49.684;2022-11-15T03:52:31;102325.78;;;8.33;100.00
60371;BME280;48550;40.588;49.684;2022-11-15T03:54:59;102324.28;;;8.38;100.00
60371;BME280;48550;40.588;49.684;2022-11-15T03:57:26;102333.13;;;8.39;100.00
60371;BME280;48550;40.588;49.684;2022-11-15T03:59:52;102334.19;;;8.52;100.00
60371;BME280;48550;40.588;49.684;2022-11-15T04:02:17;102338.81;;;8.58;100.00
60371;BME280;48550;40.588;49.684;2022-11-15T04:04:43;102342.41;;;8.51;100.00
60371;BME280;48550;40.588;49.684;2022-11-15T04:07:09;102344.25;;;8.50;100.00
60371;BME280;48550;40.588;49.684;2022-11-15T04:09:34;102341.56;;;8.50;100.00
60371;BME280;48550;40.588;49.684;2022-11-15T04:12:20;102345.31;;;8.41;100.00
60371;BME280;48550;40.588;49.684;2022-11-15T04:15:07;102354.88;;;8.36;100.00
60371;BME280;48550;40.588;49.684;2022-11-15T04:20:30;102365.91;;;8.33;100.00
60371;BME280;48550;40.588;49.684;2022-11-15T04:23:20;102372.44;;;8.38;100.00
60371;BME280;48550;40.588;49.684;2022-11-15T04:26:16;102381.31;;;8.31;100.00
60371;BME280;48550;40.588;49.684;2022-11-15T04:28:42;102379.81;;;8.28;100.00
60371;BME280;48550;40.588;49.684;2022-11-15T04:31:31;102370.66;;;8.53;100.00
60371;BME280;48550;40.588;49.684;2022-11-15T04:33:57;102392.28;;;8.44;100.00
60371;BME280;48550;40.588;49.684;2022-11-15T04:36:23;102395.81;;;8.44;100.00
60371;BME280;48550;40.588;49.684;2022-11-15T04:39:07;102393.31;;;8.43;100.00
60371;BME280;48550;40.588;49.684;2022-11-15T04:41:33;102402.75;;;8.53;100.00
60371;BME280;48550;40.588;49.684;2022-11-15T04:43:59;102408.81;;;8.47;100.00
60371;BME280;48550;40.588;49.684;2022-11-15T04:46:25;102428.25;;;8.41;100.00
60371;BME280;48550;40.588;49.684;2022-11-15T04:48:51;102427.69;;;8.54;100.00
60371;BME280;48550;40.588;49.684;2022-11-15T04:51:17;102425.66;;;8.56;100.00
60371;BME280;48550;40.588;49.684;2022-11-15T04:53:43;102432.97;;;8.62;100.00
60371;BME280;48550;40.588;49.684;2022-11-15T04:56:08;102431.53;;;8.51;100.00
60371;BME280;48550;40.588;49.684;2022-11-15T04:58:34;102433.16;;;8.60;100.00
60371;BME280;48550;40.588;49.684;2022-11-15T05:01:11;102444.69;;;8.61;100.00
60371;BME280;48550;40.588;49.684;2022-11-15T05:03:37;102443.75;;;8.54;100.00
60371;BME280;48550;40.588;49.684;2022-11-15T05:06:22;102442.78;;;8.47;100.00
60371;BME280;48550;40.588;49.684;2022-11-15T05:08:47;102435.75;;;8.46;100.00
60371;BME280;48550;40.588;49.684;2022-11-15T05:11:13;102444.19;;;8.35;100.00
60371;BME280;48550;40.588;49.684;2022-11-15T05:13:39;102441.34;;;8.28;100.00
60371;BME280;48550;40.588;49.684;2022-11-15T05:16:04;102444.50;;;8.32;100.00
60371;BME280;48550;40.588;49.684;2022-11-15T05:18:30;102432.34;;;8.21;100.00
60371;BME280;48550;40.588;49.684;2022-11-15T05:20:56;102438.69;;;8.28;100.00
60371;BME280;48550;40.588;49.684;2022-11-15T05:23:28;102435.75;;;8.46;100.00
60371;BME280;48550;40.588;49.684;2022-11-15T05:25:53;102434.56;;;8.48;100.00
60371;BME280;48550;40.588;49.684;2022-11-15T05:28:23;102445.41;;;8.55;100.00
60371;BME280;48550;40.588;49.684;2022-11-15T05:30:49;102432.69;;;8.57;100.00
60371;BME280;48550;40.588;49.684;2022-11-15T05:33:15;102436.97;;;8.66;100.00
60371;BME280;48550;40.588;49.684;2022-11-15T05:35:42;102435.94;;;8.44;100.00
60371;BME280;48550;40.588;49.684;2022-11-15T05:38:11;102428.81;;;8.59;100.00
60371;BME280;48550;40.588;49.684;2022-11-15T06:35:34;102451.41;;;8.57;100.00
60371;BME280;48550;40.588;49.684;2022-11-15T06:38:06;102446.53;;;8.60;100.00
60371;BME280;48550;40.588;49.684;2022-11-15T06:40:36;102463.38;;;8.69;100.00
60371;BME280;48550;40.588;49.684;2022-11-15T06:43:03;102458.91;;;8.84;100.00
60371;BME280;48550;40.588;49.684;2022-11-15T06:45:29;102443.50;;;8.86;100.00
60371;BME280;48550;40.588;49.684;2022-11-15T06:47:55;102449.34;;;8.67;100.00
60371;BME280;48550;40.588;49.684;2022-11-15T06:50:21;102449.22;;;8.60;100.00
60371;BME280;48550;40.588;49.684;2022-11-15T06:52:47;102447.06;;;8.79;100.00
60371;BME280;48550;40.588;49.684;2022-11-15T06:55:13;102455.19;;;8.94;100.00
60371;BME280;48550;40.588;49.684;2022-11-15T06:57:49;102461.31;;;9.02;100.00
60371;BME280;48550;40.588;49.684;2022-11-15T07:00:17;102470.00;;;9.04;100.00
60371;BME280;48550;40.588;49.684;2022-11-15T07:02:44;102459.53;;;8.95;100.00
60371;BME280;48550;40.588;49.684;2022-11-15T07:05:10;102467.97;;;9.06;100.00
60371;BME280;48550;40.588;49.684;2022-11-15T07:07:36;102468.63;;;9.08;100.00
60371;BME280;48550;40.588;49.684;2022-11-15T07:10:02;102458.63;;;9.02;100.00
60371;BME280;48550;40.588;49.684;2022-11-15T07:12:28;102457.47;;;9.19;100.00
60371;BME280;48550;40.588;49.684;2022-11-15T07:14:53;102458.09;;;9.44;100.00
60371;BME280;48550;40.588;49.684;2022-11-15T07:17:19;102463.19;;;9.54;100.00
60371;BME280;48550;40.588;49.684;2022-11-15T07:19:45;102458.31;;;9.72;100.00
60371;BME280;48550;40.588;49.684;2022-11-15T07:22:10;102464.50;;;9.87;100.00
60371;BME280;48550;40.588;49.684;2022-11-15T07:24:36;102461.19;;;9.85;100.00
60371;BME280;48550;40.588;49.684;2022-11-15T07:27:02;102449.72;;;9.92;100.00
60371;BME280;48550;40.588;49.684;2022-11-15T07:29:27;102459.00;;;9.51;100.00
60371;BME280;48550;40.588;49.684;2022-11-15T07:31:53;102457.34;;;9.36;100.00
60371;BME280;48550;40.588;49.684;2022-11-15T07:34:19;102446.16;;;9.32;100.00
60371;BME280;48550;40.588;49.684;2022-11-15T07:36:45;102439.78;;;9.33;100.00
60371;BME280;48550;40.588;49.684;2022-11-15T07:39:10;102453.91;;;9.42;100.00
60371;BME280;48550;40.588;49.684;2022-11-15T07:41:37;102447.72;;;9.41;100.00
60371;BME280;48550;40.588;49.684;2022-11-15T07:44:04;102431.41;;;9.13;100.00
60371;BME280;48550;40.588;49.684;2022-11-15T07:46:31;102435.13;;;9.12;100.00
60371;BME280;48550;40.588;49.684;2022-11-15T07:48:56;102439.47;;;9.13;100.00
60371;BME280;48550;40.588;49.684;2022-11-15T07:51:22;102428.75;;;9.13;100.00
60371;BME280;48550;40.588;49.684;2022-11-15T07:53:50;102425.47;;;8.80;100.00
60371;BME280;48550;40.588;49.684;2022-11-15T07:56:15;102432.50;;;9.04;100.00
60371;BME280;48550;40.588;49.684;2022-11-15T07:58:41;102424.09;;;9.07;100.00
60371;BME280;48550;40.588;49.684;2022-11-15T08:01:09;102409.88;;;9.07;100.00
60371;BME280;48550;40.588;49.684;2022-11-15T08:03:35;102398.09;;;9.31;100.00
60371;BME280;48550;40.588;49.684;2022-11-15T08:06:01;102404.47;;;9.44;100.00
60371;BME280;48550;40.588;49.684;2022-11-15T08:08:27;102397.16;;;9.23;100.00
60371;BME280;48550;40.588;49.684;2022-11-15T08:10:53;102405.09;;;9.17;100.00
60371;BME280;48550;40.588;49.684;2022-11-15T08:13:19;102406.28;;;9.14;100.00
60371;BME280;48550;40.588;49.684;2022-11-15T08:15:46;102408.69;;;9.09;100.00
60371;BME280;48550;40.588;49.684;2022-11-15T08:18:16;102403.72;;;9.21;100.00
60371;BME280;48550;40.588;49.684;2022-11-15T08:20:42;102397.19;;;9.38;100.00
60371;BME280;48550;40.588;49.684;2022-11-15T08:23:10;102399.13;;;9.44;100.00
60371;BME280;48550;40.588;49.684;2022-11-15T08:25:37;102403.75;;;9.50;100.00
60371;BME280;48550;40.588;49.684;2022-11-15T08:28:05;102399.13;;;9.44;100.00
60371;BME280;48550;40.588;49.684;2022-11-15T08:30:35;102401.16;;;9.42;100.00
60371;BME280;48550;40.588;49.684;2022-11-15T08:33:01;102393.41;;;9.47;100.00
60371;BME280;48550;40.588;49.684;2022-11-15T08:35:28;102381.84;;;9.62;100.00
60371;BME280;48550;40.588;49.684;2022-11-15T08:37:54;102375.19;;;9.57;100.00
60371;BME280;48550;40.588;49.684;2022-11-15T08:40:20;102377.09;;;9.05;100.00
60371;BME280;48550;40.588;49.684;2022-11-15T08:42:46;102380.41;;;8.92;100.00
60371;BME280;48550;40.588;49.684;2022-11-15T08:45:12;102391.75;;;8.94;100.00
60371;BME280;48550;40.588;49.684;2022-11-15T08:47:38;102390.94;;;8.94;100.00
60371;BME280;48550;40.588;49.684;2022-11-15T08:50:05;102385.75;;;8.92;100.00
60371;BME280;48550;40.588;49.684;2022-11-15T08:52:31;102393.53;;;9.02;100.00
60371;BME280;48550;40.588;49.684;2022-11-15T08:54:57;102392.25;;;9.12;100.00
60371;BME280;48550;40.588;49.684;2022-11-15T08:57:23;102390.31;;;9.06;100.00
60371;BME280;48550;40.588;49.684;2022-11-15T08:59:49;102381.53;;;9.12;100.00
60371;BME280;48550;40.588;49.684;2022-11-15T09:02:15;102386.97;;;9.04;100.00
60371;BME280;48550;40.588;49.684;2022-11-15T09:04:42;102392.38;;;9.34;100.00
60371;BME280;48550;40.588;49.684;2022-11-15T09:07:08;102381.56;;;9.42;100.00
60371;BME280;48550;40.588;49.684;2022-11-15T09:09:34;102386.91;;;9.27;100.00
60371;BME280;48550;40.588;49.684;2022-11-15T09:12:00;102390.50;;;9.19;100.00
60371;BME280;48550;40.588;49.684;2022-11-15T09:14:26;102381.38;;;8.91;100.00
60371;BME280;48550;40.588;49.684;2022-11-15T09:16:51;102373.63;;;8.58;100.00
60371;BME280;48550;40.588;49.684;2022-11-15T09:19:17;102369.47;;;8.56;100.00
60371;BME280;48550;40.588;49.684;2022-11-15T09:21:43;102366.53;;;8.43;100.00
60371;BME280;48550;40.588;49.684;2022-11-15T09:24:09;102370.13;;;8.35;100.00
60371;BME280;48550;40.588;49.684;2022-11-15T09:26:34;102366.44;;;8.36;100.00
60371;BME280;48550;40.588;49.684;2022-11-15T09:29:00;102366.97;;;8.54;100.00
60371;BME280;48550;40.588;49.684;2022-11-15T09:31:27;102348.19;;;8.40;100.00
60371;BME280;48550;40.588;49.684;2022-11-15T09:33:52;102350.28;;;8.67;100.00
60371;BME280;48550;40.588;49.684;2022-11-15T09:36:18;102353.75;;;8.53;100.00
60371;BME280;48550;40.588;49.684;2022-11-15T09:38:44;102367.50;;;8.50;100.00
60371;BME280;48550;40.588;49.684;2022-11-15T09:46:34;102337.06;;;8.51;100.00
60371;BME280;48550;40.588;49.684;2022-11-15T09:49:04;102337.28;;;8.41;100.00
60371;BME280;48550;40.588;49.684;2022-11-15T09:51:44;102351.81;;;8.47;100.00
60371;BME280;48550;40.588;49.684;2022-11-15T09:56:42;102345.06;;;8.51;100.00
60371;BME280;48550;40.588;49.684;2022-11-15T10:04:10;102346.91;;;8.50;100.00
60371;BME280;48550;40.588;49.684;2022-11-15T10:06:40;102345.97;;;8.43;100.00
60371;BME280;48550;40.588;49.684;2022-11-15T10:11:38;102342.50;;;8.57;100.00
60371;BME280;48550;40.588;49.684;2022-11-15T10:14:15;102346.78;;;8.67;100.00
60371;BME280;48550;40.588;49.684;2022-11-15T10:17:11;102345.34;;;8.79;100.00
60371;BME280;48550;40.588;49.684;2022-11-15T10:20:04;102342.00;;;8.77;100.00
60371;BME280;48550;40.588;49.684;2022-11-15T10:22:46;102338.97;;;8.80;100.00
60371;BME280;48550;40.588;49.684;2022-11-15T10:25:21;102343.06;;;8.90;100.00
60371;BME280;48550;40.588;49.684;2022-11-15T10:28:15;102340.78;;;9.02;100.00
60371;BME280;48550;40.588;49.684;2022-11-15T10:30:45;102339.16;;;9.16;100.00
60371;BME280;48550;40.588;49.684;2022-11-15T10:33:19;102342.47;;;9.03;100.00
60371;BME280;48550;40.588;49.684;2022-11-15T10:35:46;102340.03;;;8.94;100.00
60371;BME280;48550;40.588;49.684;2022-11-15T10:38:12;102343.56;;;8.94;100.00
60371;BME280;48550;40.588;49.684;2022-11-15T10:40:40;102342.72;;;8.94;100.00
60371;BME280;48550;40.588;49.684;2022-11-15T10:45:35;102340.16;;;8.77;100.00
60371;BME280;48550;40.588;49.684;2022-11-15T10:50:43;102341.22;;;8.53;100.00
60371;BME280;48550;40.588;49.684;2022-11-15T10:55:48;102327.78;;;8.39;100.00
60371;BME280;48550;40.588;49.684;2022-11-15T11:01:19;102339.91;;;8.49;100.00
60371;BME280;48550;40.588;49.684;2022-11-15T11:04:04;102332.88;;;8.48;100.00
60371;BME280;48550;40.588;49.684;2022-11-15T11:06:49;102336.22;;;8.50;100.00
60371;BME280;48550;40.588;49.684;2022-11-15T11:11:58;102351.03;;;8.38;100.00
60371;BME280;48550;40.588;49.684;2022-11-15T11:14:25;102345.03;;;8.36;100.00
60371;BME280;48550;40.588;49.684;2022-11-15T11:20:14;102340.25;;;8.46;100.00
60371;BME280;48550;40.588;49.684;2022-11-15T11:36:49;102350.91;;;8.54;100.00
60371;BME280;48550;40.588;49.684;2022-11-15T11:45:19;102358.28;;;8.90;100.00
60371;BME280;48550;40.588;49.684;2022-11-15T11:50:34;102357.97;;;8.93;100.00
60371;BME280;48550;40.588;49.684;2022-11-15T11:53:16;102355.78;;;8.88;100.00
60371;BME280;48550;40.588;49.684;2022-11-15T11:55:53;102353.38;;;8.79;100.00
60371;BME280;48550;40.588;49.684;2022-11-15T12:01:07;102351.31;;;8.66;100.00
60371;BME280;48550;40.588;49.684;2022-11-15T12:03:59;102356.84;;;8.65;100.00
60371;BME280;48550;40.588;49.684;2022-11-15T12:15:23;102363.78;;;8.74;100.00
60371;BME280;48550;40.588;49.684;2022-11-15T12:17:50;102374.59;;;8.80;100.00
60371;BME280;48550;40.588;49.684;2022-11-15T12:20:22;102377.41;;;8.87;100.00
60371;BME280;48550;40.588;49.684;2022-11-15T12:23:37;102386.50;;;9.01;100.00
60371;BME280;48550;40.588;49.684;2022-11-15T12:26:11;102385.22;;;9.11;100.00
60371;BME280;48550;40.588;49.684;2022-11-15T12:28:56;102384.22;;;9.12;100.00
60371;BME280;48550;40.588;49.684;2022-11-15T12:31:36;102386.34;;;9.17;100.00
60371;BME280;48550;40.588;49.684;2022-11-15T12:36:53;102373.69;;;9.26;100.00
60371;BME280;48550;40.588;49.684;2022-11-15T12:39:20;102374.91;;;9.23;100.00
60371;BME280;48550;40.588;49.684;2022-11-15T12:47:23;102389.38;;;8.99;100.00
60371;BME280;48550;40.588;49.684;2022-11-15T12:49:50;102379.38;;;8.93;100.00
60371;BME280;48550;40.588;49.684;2022-11-15T12:52:17;102382.25;;;8.69;100.00
60371;BME280;48550;40.588;49.684;2022-11-15T12:59:56;102390.56;;;8.74;100.00
60371;BME280;48550;40.588;49.684;2022-11-15T13:04:55;102393.44;;;8.49;100.00
60371;BME280;48550;40.588;49.684;2022-11-15T13:13:03;102413.94;;;8.26;100.00
60371;BME280;48550;40.588;49.684;2022-11-15T13:15:38;102421.78;;;8.27;100.00
60371;BME280;48550;40.588;49.684;2022-11-15T13:18:40;102414.47;;;8.52;100.00
60371;BME280;48550;40.588;49.684;2022-11-15T13:21:23;102423.38;;;8.45;100.00
60371;BME280;48550;40.588;49.684;2022-11-15T13:24:13;102422.91;;;8.41;100.00
60371;BME280;48550;40.588;49.684;2022-11-15T13:26:41;102423.25;;;8.38;100.00
60371;BME280;48550;40.588;49.684;2022-11-15T13:29:17;102421.41;;;8.39;100.00
60371;BME280;48550;40.588;49.684;2022-11-15T13:31:44;102422.91;;;8.41;100.00
60371;BME280;48550;40.588;49.684;2022-11-15T13:34:32;102426.94;;;8.37;100.00
60371;BME280;48550;40.588;49.684;2022-11-15T13:37:02;102432.13;;;8.39;100.00
60371;BME280;48550;40.588;49.684;2022-11-15T13:39:33;102431.72;;;8.50;100.00
60371;BME280;48550;40.588;49.684;2022-11-15T13:42:00;102433.13;;;8.38;100.00
60371;BME280;48550;40.588;49.684;2022-11-15T13:44:28;102441.59;;;8.49;100.00
60371;BME280;48550;40.588;49.684;2022-11-15T13:49:31;102438.50;;;8.29;100.00
60371;BME280;48550;40.588;49.684;2022-11-15T13:52:00;102438.06;;;8.18;100.00
60371;BME280;48550;40.588;49.684;2022-11-15T13:54:34;102444.38;;;8.17;100.00
60371;BME280;48550;40.588;49.684;2022-11-15T14:00:03;102454.63;;;8.05;100.00
60371;BME280;48550;40.588;49.684;2022-11-15T14:02:32;102454.31;;;8.00;100.00
60371;BME280;48550;40.588;49.684;2022-11-15T14:08:21;102452.31;;;8.02;100.00
60371;BME280;48550;40.588;49.684;2022-11-15T14:10:39;102459.84;;;7.98;100.00
60371;BME280;48550;40.588;49.684;2022-11-15T14:13:11;102452.31;;;8.02;100.00
60371;BME280;48550;40.588;49.684;2022-11-15T14:15:51;102451.31;;;8.03;100.00
60371;BME280;48550;40.588;49.684;2022-11-15T14:18:40;102458.47;;;8.11;100.00
60371;BME280;48550;40.588;49.684;2022-11-15T14:21:07;102453.81;;;8.05;100.00
60371;BME280;48550;40.588;49.684;2022-11-15T14:23:33;102455.44;;;8.14;100.00
60371;BME280;48550;40.588;49.684;2022-11-15T14:25:59;102451.91;;;8.21;100.00
60371;BME280;48550;40.588;49.684;2022-11-15T14:30:56;102460.25;;;8.35;100.00
60371;BME280;48550;40.588;49.684;2022-11-15T14:33:33;102463.34;;;8.46;100.00
60371;BME280;48550;40.588;49.684;2022-11-15T14:36:04;102466.34;;;8.74;100.00
60371;BME280;48550;40.588;49.684;2022-11-15T14:38:31;102475.16;;;8.83;100.00
60371;BME280;48550;40.588;49.684;2022-11-15T14:40:56;102474.31;;;8.59;100.00
60371;BME280;48550;40.588;49.684;2022-11-15T14:43:22;102475.50;;;8.18;100.00
60371;BME280;48550;40.588;49.684;2022-11-15T14:45:48;102482.19;;;8.14;100.00
60371;BME280;48550;40.588;49.684;2022-11-15T14:48:14;102486.69;;;8.21;100.00
60371;BME280;48550;40.588;49.684;2022-11-15T14:50:40;102484.19;;;8.12;100.00
60371;BME280;48550;40.588;49.684;2022-11-15T14:53:06;102486.69;;;8.21;100.00
60371;BME280;48550;40.588;49.684;2022-11-15T14:55:34;102489.19;;;8.23;100.00
60371;BME280;48550;40.588;49.684;2022-11-15T14:58:05;102491.50;;;8.34;100.00
60371;BME280;48550;40.588;49.684;2022-11-15T15:00:34;102482.97;;;8.31;100.00
60371;BME280;48550;40.588;49.684;2022-11-15T15:03:01;102483.97;;;8.29;100.00
60371;BME280;48550;40.588;49.684;2022-11-15T15:08:00;102486.16;;;8.34;100.00
60371;BME280;48550;40.588;49.684;2022-11-15T15:10:30;102487.16;;;8.33;100.00
60371;BME280;48550;40.588;49.684;2022-11-15T15:12:56;102478.81;;;8.28;100.00
60371;BME280;48550;40.588;49.684;2022-11-15T15:15:25;102487.31;;;8.32;100.00
60371;BME280;48550;40.588;49.684;2022-11-15T15:17:51;102490.00;;;8.32;100.00
60371;BME280;48550;40.588;49.684;2022-11-15T15:20:17;102491.00;;;8.31;100.00
60371;BME280;48550;40.588;49.684;2022-11-15T15:22:43;102493.53;;;8.16;100.00
60371;BME280;48550;40.588;49.684;2022-11-15T15:25:31;102495.59;;;8.06;100.00
60371;BME280;48550;40.588;49.684;2022-11-15T15:27:58;102504.22;;;8.16;100.00
60371;BME280;48550;40.588;49.684;2022-11-15T15:30:25;102511.94;;;8.11;100.00
60371;BME280;48550;40.588;49.684;2022-11-15T15:32:51;102507.81;;;8.00;100.00
60371;BME280;48550;40.588;49.684;2022-11-15T15:35:18;102498.78;;;8.01;100.00
60371;BME280;48550;40.588;49.684;2022-11-15T15:37:45;102505.94;;;8.09;100.00
60371;BME280;48550;40.588;49.684;2022-11-15T15:40:24;102514.28;;;8.14;100.00
60371;BME280;48550;40.588;49.684;2022-11-15T15:42:50;102511.09;;;8.10;100.00
60371;BME280;48550;40.588;49.684;2022-11-15T15:45:17;102500.91;;;8.14;100.00
60371;BME280;48550;40.588;49.684;2022-11-15T15:47:44;102504.59;;;8.13;100.00
60371;BME280;48550;40.588;49.684;2022-11-15T15:50:33;102508.91;;;8.22;100.00
60371;BME280;48550;40.588;49.684;2022-11-15T15:53:01;102509.16;;;7.96;100.00
60371;BME280;48550;40.588;49.684;2022-11-15T15:55:27;102499.81;;;7.92;100.00